Monte Toledo — CQRA — position and weather

sailwx.info

Track history (hours):
 
Tides and Currents Weather Stations Pressure Air Temp Water Temp Dewpoint Dewpoint Depression Visibility Wind Speed Wind Dir Waves Ship Positions

Monte Toledo

Last reported at 2018-Feb-12 09:58 UTC. Time now 2018-Feb-24 06:42 UTC.
Position N 01°15' E 103°25'.
Warning: this ship's position is 11 days out of date.

Length 274 m; draft 9 m.

Type: Tanker. MMSI: 255740000.

Date/timePositionNaut miles runAvg speedWind from/ knotsBaromVisibWave heightAir tempDewpointWater temp
2018-Feb-12 09:58N 01°15' E 103°25'713.6
2018-Feb-12 09:27N 01°13' E 103°31'612.2
2018-Feb-12 08:57N 01°11' E 103°37'511.9
2018-Feb-12 08:30N 01°09' E 103°42'5 9.5
2018-Feb-12 07:59N 01°10' E 103°47'5 9.8
2018-Feb-12 07:30N 01°12' E 103°51'5 9.5
2018-Feb-12 07:00N 01°14' E 103°56'5 8.8
2018-Feb-12 06:29N 01°16' E 103°60'5 7.4
2018-Feb-12 05:53N 01°17' E 104°04'1 0.0
2018-Feb-11 12:26N 01°18' E 104°04'0 0.3
2018-Feb-11 12:00N 01°18' E 104°04'  
2018-Feb-03 13:58N 23°42' E 122°13'612.6
2018-Feb-03 13:30N 23°48' E 122°14'612.6
2018-Feb-03 13:00N 23°54' E 122°16'612.3
2018-Feb-03 12:30N 24°00' E 122°17'612.2
2018-Feb-03 12:00N 24°06' E 122°18'612.4
2018-Feb-03 11:30N 24°12' E 122°19'612.3
2018-Feb-03 11:00N 24°18' E 122°20'612.3
2018-Feb-03 10:30N 24°25' E 122°20'712.2
2018-Feb-03 09:58N 24°31' E 122°21'612.4
2018-Feb-03 09:30N 24°37' E 122°22'612.9
2018-Feb-03 09:00N 24°43' E 122°22'713.5
2018-Feb-03 08:30N 24°50' E 122°23'713.7
2018-Feb-03 08:00N 24°57' E 122°23'  
Track history (hours):
 
Tides and Currents Weather Stations Pressure Air Temp Water Temp Dewpoint Dewpoint Depression Visibility Wind Speed Wind Dir Waves Ship Positions

Monte Toledo

Last reported at 2018-Feb-12 09:58 UTC. Time now 2018-Feb-24 06:42 UTC.
Position N 01°15' E 103°25'.
Warning: this ship's position is 11 days out of date.

Length 274 m; draft 9 m.

Type: Tanker. MMSI: 255740000.

Date/timePositionNaut miles runAvg speedWind from/ knotsBaromVisibWave heightAir tempDewpointWater temp
2018-Feb-12 09:58N 01°15' E 103°25'713.6
2018-Feb-12 09:27N 01°13' E 103°31'612.2
2018-Feb-12 08:57N 01°11' E 103°37'511.9
2018-Feb-12 08:30N 01°09' E 103°42'5 9.5
2018-Feb-12 07:59N 01°10' E 103°47'5 9.8
2018-Feb-12 07:30N 01°12' E 103°51'5 9.5
2018-Feb-12 07:00N 01°14' E 103°56'5 8.8
2018-Feb-12 06:29N 01°16' E 103°60'5 7.4
2018-Feb-12 05:53N 01°17' E 104°04'1 0.0
2018-Feb-11 12:26N 01°18' E 104°04'0 0.3
2018-Feb-11 12:00N 01°18' E 104°04'  
2018-Feb-03 13:58N 23°42' E 122°13'612.6
2018-Feb-03 13:30N 23°48' E 122°14'612.6
2018-Feb-03 13:00N 23°54' E 122°16'612.3
2018-Feb-03 12:30N 24°00' E 122°17'612.2
2018-Feb-03 12:00N 24°06' E 122°18'612.4
2018-Feb-03 11:30N 24°12' E 122°19'612.3
2018-Feb-03 11:00N 24°18' E 122°20'612.3
2018-Feb-03 10:30N 24°25' E 122°20'712.2
2018-Feb-03 09:58N 24°31' E 122°21'612.4
2018-Feb-03 09:30N 24°37' E 122°22'612.9
2018-Feb-03 09:00N 24°43' E 122°22'713.5
2018-Feb-03 08:30N 24°50' E 122°23'713.7
2018-Feb-03 08:00N 24°57' E 122°23'  

Dump ship's entire track history